Time;durP1;ratioP1;P1;durP2;ratioP2;P2;SDS_P1;SDS_P2;PMS_P1;PMS_P2;Temp;Humidity;BMP_temperature;BMP_pressure;BME280_temperature;BME280_humidity;BME280_pressure;Samples;Min_cycle;Max_cycle;Signal;HPM_P1;HPM_P2
2021/09/28 12:21:54;;;;;;;4.60;3.37;;;29.10;71.40;;;;;;5249856;22;20980;-85
2021/09/28 17:10:25;;;;;;;3.43;2.60;;;19.10;97.20;;;;;;5276020;22;20767;-83
2021/09/28 17:12:28;;;;;;;3.67;2.70;;;19.10;97.40;;;;;;5277713;22;20795;-82
2021/09/28 17:14:31;;;;;;;5.47;3.20;;;19.10;97.60;;;;;;5277677;22;20919;-83
2021/09/28 17:16:36;;;;;;;5.40;2.90;;;19.00;98.00;;;;;;5277693;22;20427;-83
2021/09/28 17:18:43;;;;;;;5.00;3.30;;;18.90;98.20;;;;;;5278093;22;20496;-82
2021/09/28 17:20:46;;;;;;;7.40;3.10;;;18.90;98.30;;;;;;5277889;22;20470;-83
2021/09/28 17:22:50;;;;;;;3.70;2.93;;;18.90;98.30;;;;;;5277915;22;20494;-83
2021/09/28 17:24:53;;;;;;;3.17;2.87;;;18.90;98.30;;;;;;5277010;22;20447;-83
2021/09/28 17:27:02;;;;;;;4.03;3.10;;;18.70;98.30;;;;;;5277786;22;20476;-83
2021/09/28 17:29:09;;;;;;;5.03;3.17;;;18.70;98.30;;;;;;5288659;22;20419;-83
2021/09/28 17:31:12;;;;;;;5.17;3.80;;;18.60;98.30;;;;;;5278199;22;20987;-83
2021/09/28 17:33:16;;;;;;;5.33;3.13;;;18.50;98.30;;;;;;5290266;22;20423;-83
2021/09/28 17:35:24;;;;;;;5.13;3.20;;;18.40;98.30;;;;;;5278784;22;20730;-83
2021/09/28 17:37:33;;;;;;;3.60;2.83;;;18.30;98.30;;;;;;5277602;22;20407;-83
2021/09/28 17:39:50;;;;;;;3.83;3.17;;;18.20;98.30;;;;;;5264631;22;20427;-83
2021/09/28 17:41:59;;;;;;;5.63;3.30;;;18.30;98.30;;;;;;5277224;22;20446;-83
2021/09/28 17:44:30;;;;;;;5.53;3.50;;;18.20;98.30;;;;;;5286404;22;20420;-83
2021/09/28 17:46:33;;;;;;;3.40;3.10;;;18.20;98.30;;;;;;5277663;22;20428;-83
2021/09/28 17:48:37;;;;;;;3.97;3.53;;;18.20;98.30;;;;;;5268715;22;20454;-83
2021/09/28 17:50:41;;;;;;;5.83;3.70;;;18.20;98.30;;;;;;5268832;22;20448;-83
2021/09/28 17:52:46;;;;;;;5.00;3.20;;;18.10;98.30;;;;;;5279180;22;20424;-83
2021/09/28 17:55:05;;;;;;;5.53;3.50;;;18.00;98.30;;;;;;5270947;22;20510;-83
2021/09/28 17:57:10;;;;;;;7.73;4.07;;;18.00;98.30;;;;;;5278921;22;20972;-83
2021/09/28 17:59:13;;;;;;;4.73;3.23;;;17.90;98.30;;;;;;5268518;22;20426;-84
2021/09/28 18:01:16;;;;;;;6.90;3.20;;;17.90;98.30;;;;;;5268372;22;20758;-83
2021/09/28 18:03:21;;;;;;;5.67;3.57;;;17.90;98.30;;;;;;5277273;22;20499;-83
2021/09/28 18:05:25;;;;;;;5.90;3.83;;;17.90;98.30;;;;;;5270613;22;20419;-84
2021/09/28 18:07:29;;;;;;;5.10;3.70;;;17.90;98.30;;;;;;5243126;22;20412;-83
2021/09/28 18:09:33;;;;;;;5.10;3.70;;;17.80;98.30;;;;;;5243127;22;20774;-83
2021/09/28 18:11:36;;;;;;;5.40;3.63;;;17.70;98.30;;;;;;5245519;22;20436;-83
2021/09/28 18:13:40;;;;;;;5.20;3.40;;;17.70;98.30;;;;;;5255227;22;20503;-83
2021/09/28 18:15:43;;;;;;;7.77;4.07;;;17.60;98.30;;;;;;5243836;22;20427;-83
2021/09/28 18:17:46;;;;;;;7.30;4.37;;;17.50;98.30;;;;;;5245179;22;20429;-83
2021/09/28 18:19:49;;;;;;;5.70;4.20;;;17.50;98.30;;;;;;5254453;22;20428;-83
2021/09/28 18:21:55;;;;;;;4.80;3.63;;;17.50;98.30;;;;;;5253100;22;20535;-83
2021/09/28 18:23:58;;;;;;;5.67;3.47;;;17.40;98.30;;;;;;5249262;22;20404;-84
2021/09/28 18:26:02;;;;;;;3.83;3.30;;;17.40;98.30;;;;;;5254732;22;20421;-83
2021/09/28 18:28:05;;;;;;;6.80;3.70;;;17.40;98.30;;;;;;5253136;22;20427;-83
2021/09/28 20:36:07;;;;;;;4.37;3.30;;;15.70;98.30;;;;;;5231515;22;20743;-81
2021/09/28 20:38:14;;;;;;;8.73;4.03;;;15.70;98.30;;;;;;5230378;22;20430;-82
2021/09/28 21:14:03;;;;;;;6.00;3.40;;;15.50;98.30;;;;;;4830584;24;20494;-82
2021/09/28 21:16:10;;;;;;;5.93;4.57;;;15.40;98.30;;;;;;4907377;24;20426;-82
2021/09/28 21:18:14;;;;;;;6.40;4.10;;;15.30;98.30;;;;;;4921751;24;20509;-80
2021/09/28 21:20:17;;;;;;;6.50;5.30;;;15.20;98.30;;;;;;5035106;22;20424;-81
2021/09/28 21:22:20;;;;;;;5.90;4.17;;;15.20;98.30;;;;;;5180896;23;20808;-81
2021/09/28 21:24:23;;;;;;;6.33;4.60;;;15.10;98.30;;;;;;5181626;23;20795;-82
2021/09/28 21:26:26;;;;;;;6.70;4.20;;;15.00;98.30;;;;;;5180410;23;20523;-81
2021/09/28 21:28:29;;;;;;;4.10;3.70;;;14.80;98.30;;;;;;5194146;22;20433;-82
2021/09/28 21:30:32;;;;;;;4.20;3.80;;;14.80;98.30;;;;;;5208854;22;21377;-80
2021/09/28 21:32:47;;;;;;;4.87;4.40;;;14.70;98.30;;;;;;5206331;22;20415;-81
2021/09/28 21:34:52;;;;;;;6.70;4.10;;;14.70;98.30;;;;;;5197614;22;20439;-80
2021/09/28 21:36:58;;;;;;;7.20;4.00;;;14.70;98.30;;;;;;5205554;22;20815;-80
2021/09/28 21:39:01;;;;;;;7.27;3.73;;;14.60;98.30;;;;;;5196915;22;20431;-81
2021/09/28 21:41:05;;;;;;;5.43;4.00;;;14.60;98.30;;;;;;5196833;22;20454;-79
2021/09/28 21:43:09;;;;;;;8.00;3.70;;;14.70;98.30;;;;;;5205035;22;20470;-80
2021/09/28 21:45:12;;;;;;;4.37;3.20;;;14.60;98.30;;;;;;5206348;22;20425;-81
2021/09/28 21:47:15;;;;;;;4.80;3.50;;;14.60;98.30;;;;;;5205898;22;20755;-80
2021/09/28 21:49:20;;;;;;;3.37;3.07;;;14.60;98.30;;;;;;5199748;22;20433;-80
2021/09/28 21:51:25;;;;;;;4.97;3.60;;;14.60;98.30;;;;;;5208127;22;20446;-81
2021/09/28 21:53:28;;;;;;;6.27;3.47;;;14.60;98.30;;;;;;5200022;22;20915;-80
2021/09/28 21:55:31;;;;;;;5.70;3.70;;;14.60;98.30;;;;;;5209530;22;20493;-81
2021/09/28 21:57:34;;;;;;;5.27;3.47;;;14.60;98.30;;;;;;5201292;22;20430;-80
2021/09/28 21:59:37;;;;;;;5.30;4.20;;;14.60;98.30;;;;;;5209616;22;20447;-80
2021/09/28 22:01:40;;;;;;;5.43;4.03;;;14.50;98.30;;;;;;5200736;22;20765;-81
2021/09/28 22:03:44;;;;;;;4.67;4.17;;;14.50;98.30;;;;;;5208970;22;20476;-81
2021/09/28 22:05:48;;;;;;;6.03;4.23;;;14.40;98.30;;;;;;5200688;22;20502;-80
2021/09/28 22:07:51;;;;;;;10.37;4.00;;;14.50;98.30;;;;;;5200596;22;20423;-80
2021/09/28 22:09:54;;;;;;;4.80;3.80;;;14.50;98.30;;;;;;5201024;22;20491;-81
2021/09/28 22:11:57;;;;;;;4.40;3.57;;;14.50;98.30;;;;;;5200304;22;20477;-82
2021/09/28 22:14:00;;;;;;;5.90;4.00;;;14.50;98.30;;;;;;5207842;22;20507;-80
2021/09/28 22:16:03;;;;;;;9.00;4.47;;;14.30;98.30;;;;;;5208257;22;20998;-80
2021/09/28 22:18:07;;;;;;;5.23;3.63;;;14.40;98.30;;;;;;5207689;22;20481;-80
2021/09/28 22:20:11;;;;;;;4.97;3.60;;;14.30;98.30;;;;;;5208072;22;20506;-81
2021/09/28 22:22:15;;;;;;;4.10;3.60;;;14.40;98.30;;;;;;5207608;22;20493;-81
2021/09/28 22:24:18;;;;;;;6.23;3.77;;;14.40;98.30;;;;;;5207359;22;20955;-82
2021/09/28 22:26:21;;;;;;;8.20;3.90;;;14.40;98.30;;;;;;5198109;22;20466;-81
2021/09/28 22:28:24;;;;;;;9.70;3.50;;;14.30;98.30;;;;;;5206947;22;20431;-81
2021/09/28 22:30:27;;;;;;;4.93;4.00;;;14.30;98.30;;;;;;5205449;22;20442;-81
2021/09/28 22:32:30;;;;;;;7.10;3.80;;;14.20;98.30;;;;;;5198109;22;20770;-81
2021/09/28 22:34:33;;;;;;;4.47;3.43;;;14.20;98.30;;;;;;5197658;22;20490;-81
2021/09/28 22:36:36;;;;;;;7.63;3.70;;;14.20;98.30;;;;;;5198224;22;20422;-81
2021/09/28 22:38:40;;;;;;;5.03;4.00;;;14.10;98.30;;;;;;5198111;22;20465;-81
2021/09/28 22:40:43;;;;;;;9.20;3.83;;;14.10;98.30;;;;;;5205957;22;20779;-81
2021/09/28 22:42:46;;;;;;;7.00;4.07;;;14.10;98.30;;;;;;5205555;22;20429;-80
2021/09/28 22:44:49;;;;;;;5.13;3.30;;;14.10;98.30;;;;;;5206109;22;20430;-81
2021/09/28 22:46:52;;;;;;;8.93;3.90;;;14.20;98.30;;;;;;5205369;22;20429;-81
2021/09/28 22:48:55;;;;;;;5.27;4.17;;;14.10;98.30;;;;;;5198269;22;20422;-80
2021/09/28 22:50:57;;;;;;;9.13;3.90;;;14.10;98.30;;;;;;5199043;22;20447;-81
2021/09/28 22:53:00;;;;;;;5.90;4.33;;;14.00;98.30;;;;;;5198208;22;20513;-80
2021/09/28 22:55:06;;;;;;;4.40;4.00;;;14.00;98.30;;;;;;5199219;22;20442;-81
2021/09/28 22:57:09;;;;;;;6.70;4.10;;;14.00;98.30;;;;;;5206686;22;20482;-80
2021/09/28 22:59:15;;;;;;;8.20;6.07;;;14.00;98.30;;;;;;5207269;22;20502;-80
2021/09/28 23:01:19;;;;;;;9.33;4.20;;;14.00;98.30;;;;;;5197733;22;20455;-80
2021/09/28 23:03:22;;;;;;;5.30;4.50;;;13.90;98.30;;;;;;5207739;22;20494;-80
2021/09/28 23:05:26;;;;;;;4.50;3.70;;;13.70;98.30;;;;;;5207440;22;20430;-80
2021/09/28 23:07:29;;;;;;;5.63;4.50;;;13.60;98.30;;;;;;5200192;22;20835;-80
2021/09/28 23:09:32;;;;;;;6.60;4.43;;;13.70;98.30;;;;;;5209045;22;20430;-80
2021/09/28 23:11:36;;;;;;;6.57;4.73;;;13.60;98.30;;;;;;5207882;22;20443;-81
2021/09/28 23:13:39;;;;;;;6.60;4.30;;;13.60;98.30;;;;;;5200635;22;20525;-80
2021/09/28 23:15:42;;;;;;;5.10;4.60;;;13.60;98.30;;;;;;5205290;22;20513;-81
2021/09/28 23:17:45;;;;;;;6.27;4.60;;;13.60;98.30;;;;;;5197776;22;20915;-80
2021/09/28 23:19:48;;;;;;;6.03;4.40;;;13.60;98.30;;;;;;5197953;22;21198;-80
2021/09/28 23:21:52;;;;;;;7.40;4.50;;;13.50;98.30;;;;;;5197820;22;20449;-79
2021/09/28 23:23:55;;;;;;;6.90;4.47;;;13.50;98.30;;;;;;5197695;22;20823;-80
2021/09/28 23:25:58;;;;;;;4.63;4.10;;;13.50;98.30;;;;;;5205212;22;20426;-80
2021/09/28 23:28:02;;;;;;;10.33;4.60;;;13.60;98.30;;;;;;5206114;22;20487;-80
2021/09/28 23:30:07;;;;;;;5.43;4.23;;;13.60;98.30;;;;;;5205939;22;20446;-80
2021/09/28 23:32:10;;;;;;;6.77;4.03;;;13.70;98.30;;;;;;5196902;22;20506;-80
2021/09/28 23:34:13;;;;;;;5.17;4.30;;;13.70;98.30;;;;;;5204918;22;20437;-80
2021/09/28 23:36:16;;;;;;;7.83;4.03;;;13.60;98.30;;;;;;5205159;22;20502;-80
2021/09/28 23:38:20;;;;;;;8.90;4.63;;;13.70;98.30;;;;;;5204511;22;20510;-80
2021/09/28 23:40:23;;;;;;;6.03;4.10;;;13.60;98.30;;;;;;5205192;22;20431;-80
2021/09/28 23:42:26;;;;;;;6.97;4.60;;;13.60;98.30;;;;;;5195655;22;20426;-80
2021/09/28 23:44:30;;;;;;;6.33;4.27;;;13.50;98.30;;;;;;5196249;22;20521;-79
2021/09/28 23:46:33;;;;;;;7.77;4.40;;;13.60;98.30;;;;;;5195575;22;20427;-80
2021/09/28 23:48:36;;;;;;;6.90;4.70;;;13.50;98.30;;;;;;5196289;22;20427;-80
2021/09/28 23:50:39;;;;;;;8.63;4.03;;;13.50;98.30;;;;;;5195689;22;20771;-80
2021/09/28 23:52:42;;;;;;;6.80;3.80;;;13.50;98.30;;;;;;5195770;22;20509;-80
2021/09/28 23:54:45;;;;;;;7.67;4.40;;;13.50;98.30;;;;;;5195806;22;20419;-80
2021/09/28 23:56:48;;;;;;;7.83;4.43;;;13.50;98.30;;;;;;5195020;22;20451;-80
2021/09/28 23:58:51;;;;;;;6.83;4.20;;;13.40;98.30;;;;;;5195283;22;20426;-80
